Time;durP1;ratioP1;P1;durP2;ratioP2;P2;SDS_P1;SDS_P2;PMS_P1;PMS_P2;Temp;Humidity;BMP_temperature;BMP_pressure;BME280_temperature;BME280_humidity;BME280_pressure;Samples;Min_cycle;Max_cycle;Signal;HPM_P1;HPM_P2
2023/05/16 00:00:39;;;;;;;;;;;14.80;99.90;;;;;;4814582;29;21508;-77
2023/05/16 00:03:06;;;;;;;;;;;14.80;99.90;;;;;;4780845;29;19940;-77
2023/05/16 00:05:33;;;;;;;;;;;14.80;99.90;;;;;;4797343;29;20039;-77
2023/05/16 00:08:00;;;;;;;;;;;14.80;99.90;;;;;;4797126;29;19943;-78
2023/05/16 00:10:27;;;;;;;;;;;14.80;99.90;;;;;;4791209;29;19943;-78
2023/05/16 00:12:55;;;;;;;;;;;14.80;99.90;;;;;;4827899;29;19936;-78
2023/05/16 00:15:23;;;;;;;;;;;14.70;99.90;;;;;;4797431;29;20398;-78
2023/05/16 00:17:51;;;;;;;;;;;14.70;99.90;;;;;;4794888;29;19943;-78
2023/05/16 00:20:22;;;;;;;;;;;14.70;99.90;;;;;;4812763;29;20544;-78
2023/05/16 00:22:49;;;;;;;;;;;14.70;99.90;;;;;;4814436;29;20049;-78
2023/05/16 00:25:16;;;;;;;;;;;14.70;99.90;;;;;;4797035;29;19936;-78
2023/05/16 00:27:44;;;;;;;;;;;14.70;99.90;;;;;;4795887;29;20627;-78
2023/05/16 00:30:11;;;;;;;;;;;14.70;99.90;;;;;;4775603;29;19978;-78
2023/05/16 00:32:38;;;;;;;;;;;14.70;99.90;;;;;;4826775;29;20443;-78
2023/05/16 00:35:09;;;;;;;;;;;14.70;99.90;;;;;;4796228;29;19928;-78
2023/05/16 00:37:37;;;;;;;;;;;14.70;99.90;;;;;;4799128;29;19939;-78
2023/05/16 00:40:04;;;;;;;;;;;14.70;99.90;;;;;;4798380;29;19936;-78
2023/05/16 00:42:31;;;;;;;;;;;14.70;99.90;;;;;;4812269;29;19940;-78
2023/05/16 00:44:58;;;;;;;;;;;14.60;99.90;;;;;;4780118;29;19959;-78
2023/05/16 00:47:27;;;;;;;;;;;14.60;99.90;;;;;;4788971;29;19936;-78
2023/05/16 00:49:55;;;;;;;;;;;14.60;99.90;;;;;;4816340;29;19936;-78
2023/05/16 00:52:22;;;;;;;;;;;14.60;99.90;;;;;;4816246;29;20339;-78
2023/05/16 00:54:50;;;;;;;;;;;14.60;99.90;;;;;;4817238;29;19943;-78
2023/05/16 00:57:17;;;;;;;;;;;14.60;99.90;;;;;;4795083;29;20419;-78
2023/05/16 00:59:45;;;;;;;;;;;14.60;99.90;;;;;;4813762;29;20035;-78
2023/05/16 01:02:13;;;;;;;;;;;14.60;99.90;;;;;;4798386;29;19967;-78
2023/05/16 01:04:41;;;;;;;;;;;14.60;99.90;;;;;;4793966;29;19975;-78
2023/05/16 01:07:08;;;;;;;;;;;14.60;99.90;;;;;;4798849;29;20337;-78
2023/05/16 01:09:36;;;;;;;;;;;15.40;99.90;;;;;;4800173;29;20049;-78
2023/05/16 01:12:16;;;;;;;;;;;13.80;99.90;;;;;;4779931;29;23310;-78
2023/05/16 01:14:59;;;;;;;;;;;14.60;99.90;;;;;;4799831;29;19932;-78
2023/05/16 01:17:46;;;;;;;;;;;14.60;99.90;;;;;;4777284;29;19935;-78
2023/05/16 01:20:24;;;;;;;;;;;14.60;99.90;;;;;;4769637;29;20364;-78
2023/05/16 01:23:02;;;;;;;;;;;14.50;99.90;;;;;;4805044;29;20647;-78
2023/05/16 01:25:39;;;;;;;;;;;14.50;99.90;;;;;;4816705;29;22163;-78
2023/05/16 01:28:06;;;;;;;;;;;13.90;99.90;;;;;;4801793;29;20400;-78
2023/05/16 01:30:35;;;;;;;;;;;14.50;99.90;;;;;;4816144;29;19960;-78
2023/05/16 01:33:02;;;;;;;;;;;14.50;99.90;;;;;;4801475;29;19936;-79
2023/05/16 01:35:30;;;;;;;;;;;14.50;99.90;;;;;;4800363;29;19936;-79
2023/05/16 01:38:03;;;;;;;;;;;14.50;99.90;;;;;;4820680;29;22034;-78
2023/05/16 01:40:30;;;;;;;;;;;14.40;99.90;;;;;;4789722;29;20816;-78
2023/05/16 01:42:59;;;;;;;;;;;14.50;99.90;;;;;;4790069;29;20298;-78
2023/05/16 01:45:30;;;;;;;;;;;14.40;99.90;;;;;;4783000;29;19936;-78
2023/05/16 01:48:04;;;;;;;;;;;14.50;99.90;;;;;;4814124;29;20123;-78
2023/05/16 01:50:33;;;;;;;;;;;14.40;99.90;;;;;;4799810;29;20015;-78
2023/05/16 01:53:08;;;;;;;;;;;13.70;99.90;;;;;;4795994;29;19991;-78
2023/05/16 01:55:35;;;;;;;;;;;14.50;99.90;;;;;;4790180;29;19943;-78
2023/05/16 01:58:03;;;;;;;;;;;14.50;99.90;;;;;;4819523;29;20480;-78
2023/05/16 02:00:31;;;;;;;;;;;13.90;99.90;;;;;;4799779;29;20830;-78
2023/05/16 02:02:58;;;;;;;;;;;14.50;99.90;;;;;;4795748;29;19936;-78
2023/05/16 02:05:26;;;;;;;;;;;14.50;99.90;;;;;;4815585;29;20158;-78
2023/05/16 02:07:54;;;;;;;;;;;14.40;99.90;;;;;;4813700;29;20069;-78
2023/05/16 02:10:21;;;;;;;;;;;13.50;99.90;;;;;;4811527;29;20468;-78
2023/05/16 02:12:49;;;;;;;;;;;14.40;99.90;;;;;;4811573;29;19936;-78
2023/05/16 02:15:16;;;;;;;;;;;14.40;99.90;;;;;;4789517;29;20439;-78
2023/05/16 02:17:44;;;;;;;;;;;14.40;99.90;;;;;;4788719;29;21479;-78
2023/05/16 02:20:12;;;;;;;;;;;14.40;99.90;;;;;;4811249;29;19928;-78
2023/05/16 02:22:39;;;;;;;;;;;14.30;99.90;;;;;;4793009;29;20035;-78
2023/05/16 02:25:07;;;;;;;;;;;14.30;99.90;;;;;;4805724;29;20063;-77
2023/05/16 02:27:35;;;;;;;;;;;14.20;99.90;;;;;;4822385;29;20020;-78
2023/05/16 02:30:03;;;;;;;;;;;14.20;99.90;;;;;;4789298;29;19936;-78
2023/05/16 02:32:31;;;;;;;;;;;14.30;99.90;;;;;;4810714;29;21341;-77
2023/05/16 02:34:58;;;;;;;;;;;14.90;99.90;;;;;;4816216;29;19936;-77
2023/05/16 02:37:25;;;;;;;;;;;14.30;99.90;;;;;;4798059;29;20359;-78
2023/05/16 02:39:52;;;;;;;;;;;14.30;99.90;;;;;;4798132;29;20171;-78
2023/05/16 02:42:20;;;;;;;;;;;14.20;99.90;;;;;;4780618;29;19943;-78
2023/05/16 02:44:47;;;;;;;;;;;14.20;99.90;;;;;;4803225;29;20023;-77
2023/05/16 02:47:14;;;;;;;;;;;14.20;99.90;;;;;;4790148;29;20550;-77
2023/05/16 02:49:42;;;;;;;;;;;14.00;99.90;;;;;;4781446;29;20408;-77
2023/05/16 02:52:10;;;;;;;;;;;14.10;99.90;;;;;;4796602;29;20735;-77
2023/05/16 02:54:37;;;;;;;;;;;13.70;99.90;;;;;;4799447;29;19939;-77
2023/05/16 02:57:04;;;;;;;;;;;14.70;99.90;;;;;;4788843;29;20054;-76
2023/05/16 02:59:32;;;;;;;;;;;14.00;99.90;;;;;;4816077;29;20038;-77
2023/05/16 03:01:59;;;;;;;;;;;14.00;99.90;;;;;;4814017;29;19979;-77
2023/05/16 03:04:26;;;;;;;;;;;14.00;99.90;;;;;;4803620;29;19928;-77
2023/05/16 03:06:53;;;;;;;;;;;14.00;99.90;;;;;;4817986;29;19943;-77
2023/05/16 03:09:20;;;;;;;;;;;14.10;99.90;;;;;;4780599;29;19947;-76
2023/05/16 03:11:47;;;;;;;;;;;14.00;99.90;;;;;;4833348;29;19943;-77
2023/05/16 03:14:14;;;;;;;;;;;13.90;99.90;;;;;;4800172;29;19940;-76
2023/05/16 03:16:42;;;;;;;;;;;13.90;99.90;;;;;;4774985;29;19936;-76
2023/05/16 03:19:09;;;;;;;;;;;13.90;99.90;;;;;;4789672;29;19936;-76
2023/05/16 03:21:36;;;;;;;;;;;13.90;99.90;;;;;;4796339;29;19928;-76
2023/05/16 03:24:05;;;;;;;;;;;13.70;99.90;;;;;;4799044;29;20490;-76
2023/05/16 03:26:32;;;;;;;;;;;13.70;99.90;;;;;;4808579;29;19943;-76
2023/05/16 03:28:59;;;;;;;;;;;13.80;99.90;;;;;;4789231;29;22365;-77
2023/05/16 03:31:26;;;;;;;;;;;13.80;99.90;;;;;;4790516;29;19944;-76
2023/05/16 03:33:53;;;;;;;;;;;13.80;99.90;;;;;;4812225;29;20580;-76
2023/05/16 03:36:20;;;;;;;;;;;13.80;99.90;;;;;;4822832;29;19936;-77
2023/05/16 03:38:48;;;;;;;;;;;13.90;99.90;;;;;;4793969;29;20023;-76
2023/05/16 03:41:14;;;;;;;;;;;13.90;99.90;;;;;;4790588;29;19942;-76
2023/05/16 03:43:41;;;;;;;;;;;13.90;99.90;;;;;;4785383;29;20704;-76
2023/05/16 03:46:08;;;;;;;;;;;13.90;99.90;;;;;;4798773;29;19936;-77
2023/05/16 03:48:35;;;;;;;;;;;13.90;99.90;;;;;;4786512;29;19932;-76
2023/05/16 03:51:02;;;;;;;;;;;13.90;99.90;;;;;;4819331;29;19936;-76
2023/05/16 03:53:29;;;;;;;;;;;13.80;99.90;;;;;;4798710;29;19943;-76
2023/05/16 03:55:56;;;;;;;;;;;13.90;99.90;;;;;;4804339;29;19936;-76
2023/05/16 03:58:23;;;;;;;;;;;13.90;99.90;;;;;;4804606;29;19936;-76
2023/05/16 04:00:50;;;;;;;;;;;13.90;99.90;;;;;;4797570;29;19936;-76
2023/05/16 04:03:17;;;;;;;;;;;13.90;99.90;;;;;;4807005;29;19943;-76
2023/05/16 04:05:44;;;;;;;;;;;13.90;99.90;;;;;;4798600;29;19942;-76
2023/05/16 04:08:11;;;;;;;;;;;13.90;99.90;;;;;;4791597;29;20086;-76
2023/05/16 04:10:38;;;;;;;;;;;13.90;99.90;;;;;;4778808;29;19936;-76
2023/05/16 04:13:05;;;;;;;;;;;13.90;99.90;;;;;;4808527;29;19936;-76
2023/05/16 04:15:32;;;;;;;;;;;14.00;99.90;;;;;;4787031;29;19943;-76
2023/05/16 04:17:59;;;;;;;;;;;14.00;99.90;;;;;;4776319;29;19993;-76
2023/05/16 04:20:26;;;;;;;;;;;14.00;99.90;;;;;;4799032;29;19936;-77
2023/05/16 04:22:53;;;;;;;;;;;14.00;99.90;;;;;;4825291;29;19936;-76
2023/05/16 04:25:21;;;;;;;;;;;14.00;99.90;;;;;;4782047;29;19942;-76
2023/05/16 04:27:48;;;;;;;;;;;14.00;99.90;;;;;;4811618;29;20113;-76
2023/05/16 04:30:15;;;;;;;;;;;14.00;99.90;;;;;;4803637;29;19937;-76
2023/05/16 04:32:42;;;;;;;;;;;14.10;99.90;;;;;;4798053;29;19936;-76
2023/05/16 04:35:09;;;;;;;;;;;14.10;99.90;;;;;;4805780;29;19978;-76
2023/05/16 04:37:36;;;;;;;;;;;14.00;99.90;;;;;;4799965;29;19932;-76
2023/05/16 04:40:06;;;;;;;;;;;14.10;99.90;;;;;;4794801;29;22178;-76
2023/05/16 04:42:33;;;;;;;;;;;14.10;99.90;;;;;;4795163;29;20612;-76
2023/05/16 04:45:02;;;;;;;;;;;14.10;99.90;;;;;;4816586;29;20955;-76
2023/05/16 04:47:30;;;;;;;;;;;14.10;99.90;;;;;;4791585;29;19936;-76
2023/05/16 04:49:57;;;;;;;;;;;14.10;99.90;;;;;;4795220;29;20334;-75
2023/05/16 04:52:24;;;;;;;;;;;14.10;99.90;;;;;;4821061;29;20388;-76
2023/05/16 04:54:51;;;;;;;;;;;14.10;99.90;;;;;;4780945;29;20731;-75
2023/05/16 04:57:18;;;;;;;;;;;14.10;99.90;;;;;;4810017;29;20035;-76
2023/05/16 04:59:45;;;;;;;;;;;14.10;99.90;;;;;;4795494;29;20151;-75
2023/05/16 05:02:12;;;;;;;;;;;14.20;99.90;;;;;;4797461;29;22153;-76
2023/05/16 05:04:39;;;;;;;;;;;14.10;99.90;;;;;;4797578;29;22391;-76
2023/05/16 05:07:07;;;;;;;;;;;14.20;99.90;;;;;;4799408;29;20440;-76
2023/05/16 05:09:34;;;;;;;;;;;14.10;99.90;;;;;;4790125;29;19943;-76
2023/05/16 05:12:01;;;;;;;;;;;14.20;99.90;;;;;;4784348;29;20091;-76
2023/05/16 05:14:28;;;;;;;;;;;14.20;99.90;;;;;;4817092;29;20093;-76
2023/05/16 05:16:55;;;;;;;;;;;14.20;99.90;;;;;;4812055;29;19936;-76
2023/05/16 05:19:22;;;;;;;;;;;14.10;99.90;;;;;;4812514;29;19985;-76
2023/05/16 05:21:49;;;;;;;;;;;14.20;99.90;;;;;;4816016;29;19940;-76
2023/05/16 05:24:16;;;;;;;;;;;14.20;99.90;;;;;;4787621;29;19986;-75
2023/05/16 05:26:43;;;;;;;;;;;14.20;99.90;;;;;;4829489;29;20079;-76
2023/05/16 05:29:10;;;;;;;;;;;14.20;99.90;;;;;;4815083;29;19936;-76
2023/05/16 05:31:37;;;;;;;;;;;14.20;99.90;;;;;;4809861;29;20270;-75
2023/05/16 05:34:04;;;;;;;;;;;14.20;99.90;;;;;;4796306;29;22299;-75
2023/05/16 05:36:31;;;;;;;;;;;14.20;99.90;;;;;;4797412;29;20043;-75
2023/05/16 05:38:58;;;;;;;;;;;14.20;99.90;;;;;;4815375;29;19936;-76
2023/05/16 05:41:26;;;;;;;;;;;14.20;99.90;;;;;;4823504;29;20023;-75
2023/05/16 05:43:52;;;;;;;;;;;14.20;99.90;;;;;;4786276;29;20031;-75
2023/05/16 05:46:20;;;;;;;;;;;14.20;99.90;;;;;;4809215;29;19949;-76
2023/05/16 05:48:47;;;;;;;;;;;14.20;99.90;;;;;;4808329;29;19928;-75
2023/05/16 05:51:14;;;;;;;;;;;14.30;99.90;;;;;;4811783;29;20015;-76
2023/05/16 05:53:41;;;;;;;;;;;14.20;99.90;;;;;;4821997;29;19932;-75
2023/05/16 05:56:08;;;;;;;;;;;14.20;99.90;;;;;;4822613;29;20085;-76
2023/05/16 05:58:35;;;;;;;;;;;14.30;99.90;;;;;;4813888;29;19928;-74
2023/05/16 06:01:02;;;;;;;;;;;14.30;99.90;;;;;;4797415;29;19936;-76
2023/05/16 06:03:29;;;;;;;;;;;14.20;99.90;;;;;;4797163;29;20684;-75
2023/05/16 06:05:56;;;;;;;;;;;14.30;99.90;;;;;;4806966;29;20299;-76
2023/05/16 06:08:23;;;;;;;;;;;14.30;99.90;;;;;;4784965;29;19943;-76
2023/05/16 06:10:50;;;;;;;;;;;14.30;99.90;;;;;;4812981;29;20284;-74
2023/05/16 06:13:17;;;;;;;;;;;14.30;99.90;;;;;;4820372;29;19940;-75
2023/05/16 06:15:48;;;;;;;;;;;14.30;99.90;;;;;;4823560;29;19935;-76
2023/05/16 06:18:15;;;;;;;;;;;14.30;99.90;;;;;;4836909;29;19943;-76
2023/05/16 06:20:42;;;;;;;;;;;14.40;99.90;;;;;;4810721;29;19942;-75
2023/05/16 06:23:09;;;;;;;;;;;14.40;99.90;;;;;;4812240;29;20023;-76
2023/05/16 06:25:36;;;;;;;;;;;14.40;99.90;;;;;;4829233;29;20405;-76
2023/05/16 06:28:03;;;;;;;;;;;14.40;99.90;;;;;;4804258;29;19932;-76
2023/05/16 06:30:30;;;;;;;;;;;14.40;99.90;;;;;;4790795;29;20417;-76
2023/05/16 06:32:57;;;;;;;;;;;14.40;99.90;;;;;;4789959;29;19943;-76
2023/05/16 06:35:24;;;;;;;;;;;14.40;99.90;;;;;;4800751;29;19935;-76
2023/05/16 06:37:51;;;;;;;;;;;14.40;99.90;;;;;;4812594;29;20336;-76
2023/05/16 06:40:18;;;;;;;;;;;14.40;99.90;;;;;;4825469;29;19936;-75
2023/05/16 06:42:45;;;;;;;;;;;14.40;99.90;;;;;;4828234;29;20015;-76
2023/05/16 06:45:12;;;;;;;;;;;14.40;99.90;;;;;;4802236;29;19936;-76
2023/05/16 06:47:40;;;;;;;;;;;14.40;99.90;;;;;;4808482;29;20348;-76
2023/05/16 06:50:07;;;;;;;;;;;14.40;99.90;;;;;;4819858;29;19932;-76
2023/05/16 06:52:34;;;;;;;;;;;14.40;99.90;;;;;;4818364;29;19943;-76
2023/05/16 06:55:01;;;;;;;;;;;14.40;99.90;;;;;;4805603;29;19936;-76
2023/05/16 06:57:28;;;;;;;;;;;14.40;99.90;;;;;;4829684;29;20311;-76
2023/05/16 06:59:55;;;;;;;;;;;14.40;99.90;;;;;;4811477;29;19936;-77
2023/05/16 07:02:22;;;;;;;;;;;14.40;99.90;;;;;;4799376;29;20524;-76
2023/05/16 07:04:50;;;;;;;;;;;14.40;99.90;;;;;;4807576;29;19943;-77
2023/05/16 07:07:17;;;;;;;;;;;14.40;99.90;;;;;;4803217;29;20446;-77
2023/05/16 07:09:44;;;;;;;;;;;14.40;99.90;;;;;;4791833;29;19936;-77
2023/05/16 07:12:11;;;;;;;;;;;14.40;99.90;;;;;;4819764;29;19936;-75
2023/05/16 07:14:40;;;;;;;;;;;14.40;99.90;;;;;;4805896;29;19943;-77
2023/05/16 07:17:08;;;;;;;;;;;14.40;99.90;;;;;;4783423;29;20303;-77
2023/05/16 07:19:35;;;;;;;;;;;15.20;99.90;;;;;;4784634;29;19936;-76
2023/05/16 07:22:02;;;;;;;;;;;14.40;99.90;;;;;;4792411;29;20016;-75
2023/05/16 07:24:29;;;;;;;;;;;14.40;99.90;;;;;;4820769;29;19943;-77
2023/05/16 07:26:56;;;;;;;;;;;14.50;99.90;;;;;;4814869;29;19928;-75
2023/05/16 07:29:24;;;;;;;;;;;14.40;99.90;;;;;;4803403;29;19936;-76
2023/05/16 07:31:51;;;;;;;;;;;14.40;99.90;;;;;;4818478;29;19936;-76
2023/05/16 07:34:19;;;;;;;;;;;13.50;99.90;;;;;;4805438;29;20071;-76
2023/05/16 07:36:46;;;;;;;;;;;14.40;99.90;;;;;;4804713;29;19936;-75
2023/05/16 07:39:13;;;;;;;;;;;14.50;99.90;;;;;;4784929;29;19937;-78
2023/05/16 07:41:40;;;;;;;;;;;14.50;99.90;;;;;;4810054;29;19936;-76
2023/05/16 07:44:08;;;;;;;;;;;14.50;99.90;;;;;;4789997;29;19935;-77
2023/05/16 07:46:35;;;;;;;;;;;15.30;99.90;;;;;;4819651;29;19955;-76
2023/05/16 07:49:02;;;;;;;;;;;14.40;99.90;;;;;;4817571;29;19936;-76
2023/05/16 07:51:30;;;;;;;;;;;14.40;99.90;;;;;;4802515;29;19936;-76
2023/05/16 07:53:57;;;;;;;;;;;14.40;99.90;;;;;;4822097;29;20434;-75
2023/05/16 07:56:25;;;;;;;;;;;14.40;99.90;;;;;;4809381;29;20034;-77
2023/05/16 07:58:52;;;;;;;;;;;14.40;99.90;;;;;;4792472;29;19936;-76
2023/05/16 08:01:19;;;;;;;;;;;14.50;99.90;;;;;;4823519;29;19936;-77
2023/05/16 08:03:46;;;;;;;;;;;14.50;99.90;;;;;;4795445;29;19936;-75
2023/05/16 08:06:13;;;;;;;;;;;14.50;99.90;;;;;;4823752;29;20329;-75
2023/05/16 08:08:41;;;;;;;;;;;14.60;99.90;;;;;;4825782;29;19936;-75
2023/05/16 08:11:08;;;;;;;;;;;14.60;99.90;;;;;;4827218;29;19935;-75
2023/05/16 08:13:35;;;;;;;;;;;14.60;99.90;;;;;;4801797;29;20672;-76
2023/05/16 08:16:02;;;;;;;;;;;14.60;99.90;;;;;;4808722;29;19975;-76
2023/05/16 08:18:29;;;;;;;;;;;14.50;99.90;;;;;;4807097;29;19936;-76
2023/05/16 08:20:57;;;;;;;;;;;14.60;99.90;;;;;;4821414;29;20529;-77
2023/05/16 08:23:24;;;;;;;;;;;14.50;99.90;;;;;;4827540;29;19936;-76
2023/05/16 08:25:53;;;;;;;;;;;14.60;99.90;;;;;;4815477;29;20461;-76
2023/05/16 08:28:20;;;;;;;;;;;14.60;99.90;;;;;;4820250;29;19936;-75
2023/05/16 08:30:47;;;;;;;;;;;14.60;99.90;;;;;;4834391;29;19979;-76
2023/05/16 08:33:15;;;;;;;;;;;14.60;99.90;;;;;;4840792;29;19936;-76
2023/05/16 08:35:42;;;;;;;;;;;14.60;99.90;;;;;;4845903;29;20045;-75
2023/05/16 08:38:10;;;;;;;;;;;14.60;99.90;;;;;;4821202;29;20285;-76
2023/05/16 08:40:37;;;;;;;;;;;14.60;99.90;;;;;;4821260;29;19932;-78
2023/05/16 08:43:04;;;;;;;;;;;14.60;99.90;;;;;;4826530;29;19936;-77
2023/05/16 08:45:31;;;;;;;;;;;14.70;99.90;;;;;;4800745;29;19936;-77
2023/05/16 08:48:00;;;;;;;;;;;14.70;99.90;;;;;;4816142;29;20182;-76
2023/05/16 08:50:30;;;;;;;;;;;14.70;99.90;;;;;;4797377;29;20599;-76
2023/05/16 08:53:01;;;;;;;;;;;14.70;99.90;;;;;;4818940;29;20405;-76
2023/05/16 08:55:28;;;;;;;;;;;14.80;99.90;;;;;;4836518;29;19936;-76
2023/05/16 08:57:56;;;;;;;;;;;14.80;99.90;;;;;;4823339;29;19936;-76
2023/05/16 09:00:23;;;;;;;;;;;14.80;99.90;;;;;;4827951;29;19985;-76
2023/05/16 09:02:51;;;;;;;;;;;14.80;99.90;;;;;;4822703;29;20016;-78
2023/05/16 09:05:19;;;;;;;;;;;14.90;99.90;;;;;;4804077;29;19944;-77
2023/05/16 09:07:46;;;;;;;;;;;14.80;99.90;;;;;;4805695;29;20039;-75
2023/05/16 09:10:13;;;;;;;;;;;14.90;99.90;;;;;;4798642;29;20023;-76
2023/05/16 09:12:40;;;;;;;;;;;14.80;99.90;;;;;;4823964;29;19983;-77
2023/05/16 09:15:09;;;;;;;;;;;14.90;99.90;;;;;;4810075;29;19928;-76
2023/05/16 09:17:37;;;;;;;;;;;14.90;99.90;;;;;;4826902;29;19935;-75
2023/05/16 09:20:07;;;;;;;;;;;15.00;99.90;;;;;;4825930;29;19932;-77
2023/05/16 09:22:34;;;;;;;;;;;14.90;99.90;;;;;;4800091;29;19936;-76
2023/05/16 09:25:01;;;;;;;;;;;15.00;99.90;;;;;;4810438;29;19944;-76
2023/05/16 09:27:29;;;;;;;;;;;15.00;99.90;;;;;;4810382;29;20030;-76
2023/05/16 09:29:59;;;;;;;;;;;15.00;99.90;;;;;;4809475;29;19936;-78
2023/05/16 09:32:30;;;;;;;;;;;15.00;99.90;;;;;;4783754;29;20074;-75
2023/05/16 09:34:57;;;;;;;;;;;15.30;99.90;;;;;;4817636;29;19929;-76
2023/05/16 09:37:24;;;;;;;;;;;15.00;99.90;;;;;;4816094;29;19932;-76
2023/05/16 09:39:55;;;;;;;;;;;15.10;99.90;;;;;;4846881;29;19963;-75
2023/05/16 09:42:24;;;;;;;;;;;15.00;99.90;;;;;;4820395;29;19936;-75
2023/05/16 09:44:53;;;;;;;;;;;15.00;99.90;;;;;;4825041;29;19936;-78
2023/05/16 09:47:21;;;;;;;;;;;15.10;99.90;;;;;;4823789;29;19944;-75
2023/05/16 09:49:51;;;;;;;;;;;15.10;99.90;;;;;;4794909;29;19936;-75
2023/05/16 09:52:18;;;;;;;;;;;15.10;99.90;;;;;;4818769;29;22337;-76
2023/05/16 09:54:49;;;;;;;;;;;15.00;99.90;;;;;;4803907;29;19979;-75
2023/05/16 09:57:20;;;;;;;;;;;15.00;99.90;;;;;;4830740;29;19936;-77
2023/05/16 09:59:47;;;;;;;;;;;15.00;99.90;;;;;;4823300;29;23096;-75
2023/05/16 10:02:14;;;;;;;;;;;15.00;99.90;;;;;;4811754;29;19935;-75
2023/05/16 10:04:42;;;;;;;;;;;15.00;99.90;;;;;;4808263;29;22285;-76
2023/05/16 10:07:09;;;;;;;;;;;15.00;99.90;;;;;;4810500;29;19992;-78
2023/05/16 10:09:37;;;;;;;;;;;14.90;99.90;;;;;;4791326;29;19981;-76
2023/05/16 10:12:06;;;;;;;;;;;14.90;99.90;;;;;;4806472;29;19936;-76
2023/05/16 10:14:34;;;;;;;;;;;14.90;99.90;;;;;;4831968;29;19936;-77
2023/05/16 10:17:11;;;;;;;;;;;15.00;99.90;;;;;;4807714;29;20039;-75
2023/05/16 10:19:38;;;;;;;;;;;14.90;99.90;;;;;;4805866;29;20031;-76
2023/05/16 10:22:06;;;;;;;;;;;14.80;99.90;;;;;;4821324;29;20342;-76
2023/05/16 10:24:46;;;;;;;;;;;14.90;99.90;;;;;;4800437;29;20034;-77
2023/05/16 10:27:14;;;;;;;;;;;14.90;99.90;;;;;;4807397;29;20727;-74
2023/05/16 10:29:45;;;;;;;;;;;14.90;99.90;;;;;;4818913;29;19936;-76
2023/05/16 10:32:22;;;;;;;;;;;14.90;99.90;;;;;;4834956;29;19933;-76
2023/05/16 10:34:49;;;;;;;;;;;15.00;99.90;;;;;;4813170;29;20475;-78
2023/05/16 10:37:17;;;;;;;;;;;14.90;99.90;;;;;;4803479;29;19960;-77
2023/05/16 10:39:44;;;;;;;;;;;14.90;99.90;;;;;;4810879;29;20278;-76
2023/05/16 10:42:13;;;;;;;;;;;14.90;99.90;;;;;;4825416;29;20518;-76
2023/05/16 10:44:40;;;;;;;;;;;15.00;99.90;;;;;;4820695;29;19935;-76
2023/05/16 10:47:21;;;;;;;;;;;14.90;99.90;;;;;;4819755;29;20512;-78
2023/05/16 10:49:48;;;;;;;;;;;14.90;99.90;;;;;;4827170;29;20340;-77
2023/05/16 10:52:16;;;;;;;;;;;15.00;99.90;;;;;;4834425;29;19943;-77
2023/05/16 10:54:52;;;;;;;;;;;15.00;99.90;;;;;;4811660;29;20639;-76
2023/05/16 10:57:22;;;;;;;;;;;15.10;99.90;;;;;;4823652;29;20164;-75
2023/05/16 10:59:50;;;;;;;;;;;15.00;99.90;;;;;;4841009;29;20107;-76
2023/05/16 11:02:27;;;;;;;;;;;15.00;99.90;;;;;;4811129;29;19936;-75
2023/05/16 11:04:56;;;;;;;;;;;14.50;99.90;;;;;;4806054;29;19936;-75
2023/05/16 11:07:23;;;;;;;;;;;15.00;99.90;;;;;;4819767;29;20022;-75
2023/05/16 11:10:04;;;;;;;;;;;15.10;99.90;;;;;;4808711;29;19990;-76
2023/05/16 11:12:48;;;;;;;;;;;15.40;99.90;;;;;;4829102;29;19983;-75
2023/05/16 11:15:19;;;;;;;;;;;14.70;99.90;;;;;;4823748;29;19936;-77
2023/05/16 11:17:47;;;;;;;;;;;15.20;99.90;;;;;;4808332;29;19936;-75
2023/05/16 11:20:29;;;;;;;;;;;15.30;99.90;;;;;;4789963;29;19944;-74
2023/05/16 11:23:20;;;;;;;;;;;15.80;99.90;;;;;;4821705;29;19936;-76
2023/05/16 11:25:50;;;;;;;;;;;15.30;99.90;;;;;;4812823;29;19943;-78
2023/05/16 11:28:18;;;;;;;;;;;15.40;99.90;;;;;;4819591;29;19936;-76
2023/05/16 11:30:50;;;;;;;;;;;15.40;99.90;;;;;;4806430;29;19936;-75
2023/05/16 11:33:18;;;;;;;;;;;15.30;99.90;;;;;;4806952;29;20707;-74
2023/05/16 11:36:01;;;;;;;;;;;15.40;99.90;;;;;;4822782;29;20031;-76
2023/05/16 11:38:42;;;;;;;;;;;15.50;99.90;;;;;;4820701;29;20067;-75
2023/05/16 11:41:10;;;;;;;;;;;15.40;99.90;;;;;;4793504;29;20212;-77
2023/05/16 11:43:41;;;;;;;;;;;15.50;99.90;;;;;;4811117;29;20388;-76
2023/05/16 11:46:12;;;;;;;;;;;15.50;99.90;;;;;;4809984;29;20384;-75
2023/05/16 11:48:40;;;;;;;;;;;15.50;99.90;;;;;;4802032;29;20416;-75
2023/05/16 11:51:08;;;;;;;;;;;15.50;99.90;;;;;;4807256;29;20284;-78
2023/05/16 11:53:36;;;;;;;;;;;15.60;99.90;;;;;;4799477;29;19979;-77
2023/05/16 11:56:06;;;;;;;;;;;15.70;99.90;;;;;;4821020;29;19936;-75
2023/05/16 11:58:33;;;;;;;;;;;15.70;99.90;;;;;;4821767;29;19942;-75
2023/05/16 12:01:03;;;;;;;;;;;15.70;99.90;;;;;;4795821;29;20335;-75
2023/05/16 12:03:33;;;;;;;;;;;15.60;99.90;;;;;;4818426;29;19936;-75
2023/05/16 12:06:01;;;;;;;;;;;15.70;99.90;;;;;;4807145;29;19943;-76
2023/05/16 12:08:29;;;;;;;;;;;15.70;99.90;;;;;;4823775;29;19936;-76
2023/05/16 12:10:57;;;;;;;;;;;15.70;99.90;;;;;;4795812;29;20091;-75
2023/05/16 12:13:25;;;;;;;;;;;15.80;99.90;;;;;;4823354;29;19936;-75
2023/05/16 12:15:53;;;;;;;;;;;15.80;99.90;;;;;;4799576;29;20336;-78
2023/05/16 12:18:20;;;;;;;;;;;15.80;99.90;;;;;;4822734;29;19994;-77
2023/05/16 12:20:47;;;;;;;;;;;15.80;99.90;;;;;;4821637;29;20799;-77
2023/05/16 12:23:15;;;;;;;;;;;15.80;99.90;;;;;;4806029;29;19936;-75
2023/05/16 12:25:46;;;;;;;;;;;15.80;99.90;;;;;;4804684;29;19936;-76
2023/05/16 12:28:14;;;;;;;;;;;15.80;99.90;;;;;;4821285;29;19944;-75
2023/05/16 12:30:42;;;;;;;;;;;15.80;99.90;;;;;;4807448;29;20115;-75
2023/05/16 12:33:12;;;;;;;;;;;15.80;99.90;;;;;;4809077;29;19996;-78
2023/05/16 12:35:41;;;;;;;;;;;15.80;99.90;;;;;;4789899;29;19931;-76
2023/05/16 12:38:09;;;;;;;;;;;15.80;99.90;;;;;;4806439;29;19929;-75
2023/05/16 12:40:38;;;;;;;;;;;15.80;99.90;;;;;;4803695;29;19943;-76
2023/05/16 12:43:12;;;;;;;;;;;15.80;99.90;;;;;;4827248;29;22048;-76
2023/05/16 12:45:40;;;;;;;;;;;15.80;99.90;;;;;;4813802;29;19936;-76
2023/05/16 12:48:14;;;;;;;;;;;15.80;99.90;;;;;;4848617;29;19928;-76
2023/05/16 12:50:41;;;;;;;;;;;15.80;99.90;;;;;;4810620;29;19943;-76
2023/05/16 12:53:12;;;;;;;;;;;15.90;99.90;;;;;;4811742;29;20023;-76
2023/05/16 12:55:40;;;;;;;;;;;15.90;99.90;;;;;;4808784;29;20384;-78
2023/05/16 12:58:08;;;;;;;;;;;15.90;99.90;;;;;;4826725;29;19929;-77
2023/05/16 13:00:36;;;;;;;;;;;15.80;99.90;;;;;;4804948;29;20538;-77
2023/05/16 13:03:06;;;;;;;;;;;15.90;99.90;;;;;;4817986;29;19999;-78
2023/05/16 13:05:34;;;;;;;;;;;15.80;99.90;;;;;;4807512;29;22328;-76
2023/05/16 13:08:02;;;;;;;;;;;15.90;99.90;;;;;;4811030;29;19988;-77
2023/05/16 13:10:30;;;;;;;;;;;15.80;99.90;;;;;;4823349;29;19940;-77
2023/05/16 13:12:58;;;;;;;;;;;15.80;99.90;;;;;;4774219;29;20483;-75
2023/05/16 13:15:26;;;;;;;;;;;15.80;99.90;;;;;;4772600;29;20467;-77
2023/05/16 13:17:54;;;;;;;;;;;15.80;99.90;;;;;;4768150;29;19943;-78
2023/05/16 13:20:21;;;;;;;;;;;15.90;99.90;;;;;;4751429;29;19937;-78
2023/05/16 13:22:49;;;;;;;;;;;15.80;99.90;;;;;;4766135;29;20023;-77
2023/05/16 13:25:16;;;;;;;;;;;15.90;99.90;;;;;;4794155;29;20123;-76
2023/05/16 13:27:43;;;;;;;;;;;15.80;99.90;;;;;;4789685;29;20513;-76
2023/05/16 13:30:11;;;;;;;;;;;15.90;99.90;;;;;;4768987;29;19948;-76
2023/05/16 13:32:38;;;;;;;;;;;15.90;99.90;;;;;;4794060;29;20266;-76
2023/05/16 13:35:05;;;;;;;;;;;16.10;99.90;;;;;;4788370;29;20476;-76
2023/05/16 13:37:32;;;;;;;;;;;16.10;99.90;;;;;;4771554;29;19943;-79
2023/05/16 13:40:00;;;;;;;;;;;16.20;99.90;;;;;;4787188;29;20070;-77
2023/05/16 13:42:27;;;;;;;;;;;16.20;99.90;;;;;;4768105;29;19944;-79
2023/05/16 13:44:55;;;;;;;;;;;16.20;99.90;;;;;;4799972;29;20694;-77
2023/05/16 13:47:22;;;;;;;;;;;16.20;99.90;;;;;;4834674;29;19948;-77
2023/05/16 13:49:49;;;;;;;;;;;16.30;99.90;;;;;;4824712;29;19995;-78
2023/05/16 13:52:17;;;;;;;;;;;16.20;99.90;;;;;;4815016;29;20073;-76
2023/05/16 13:54:44;;;;;;;;;;;16.10;99.90;;;;;;4823834;29;22293;-76
2023/05/16 13:57:11;;;;;;;;;;;16.20;99.90;;;;;;4806172;29;20013;-76
2023/05/16 13:59:38;;;;;;;;;;;16.10;99.90;;;;;;4805171;29;19928;-76
2023/05/16 14:02:08;;;;;;;;;;;16.10;99.90;;;;;;4807327;29;19928;-76
2023/05/16 14:04:35;;;;;;;;;;;16.10;99.90;;;;;;4830670;29;19929;-76
2023/05/16 14:07:02;;;;;;;;;;;16.00;99.90;;;;;;4796672;29;20022;-78
2023/05/16 14:09:30;;;;;;;;;;;16.10;99.90;;;;;;4805306;29;22619;-77
2023/05/16 14:11:57;;;;;;;;;;;16.10;99.90;;;;;;4817777;29;19952;-77
2023/05/16 14:14:25;;;;;;;;;;;16.10;99.90;;;;;;4802713;29;19979;-77
2023/05/16 14:16:52;;;;;;;;;;;16.10;99.90;;;;;;4822309;29;19936;-77
2023/05/16 14:19:19;;;;;;;;;;;16.10;99.90;;;;;;4812453;29;20037;-77
2023/05/16 14:21:47;;;;;;;;;;;16.10;99.90;;;;;;4804491;29;19936;-76